Time;durP1;ratioP1;P1;durP2;ratioP2;P2;SDS_P1;SDS_P2;PMS_P1;PMS_P2;Temp;Humidity;BMP_temperature;BMP_pressure;BME280_temperature;BME280_humidity;BME280_pressure;Samples;Min_cycle;Max_cycle;Signal;HPM_P1;HPM_P2
2022/07/04 00:01:21;;;;;;;6.37;3.40;;;;;;;24.16;46.87;99806.69;4453402;32;35808;-79
2022/07/04 00:03:49;;;;;;;5.87;3.70;;;;;;;24.06;47.33;99803.97;4453413;32;33946;-78
2022/07/04 00:06:17;;;;;;;7.12;4.20;;;;;;;23.96;47.32;99804.94;4453284;32;32657;-78
2022/07/04 00:08:45;;;;;;;8.10;3.30;;;;;;;23.95;47.48;99811.69;4453520;32;34281;-78
2022/07/04 00:11:14;;;;;;;6.20;3.62;;;;;;;23.85;48.11;99812.59;4466467;32;35266;-78
2022/07/04 00:13:41;;;;;;;5.60;3.35;;;;;;;23.90;47.81;99814.53;4453402;32;34741;-78
2022/07/04 00:16:09;;;;;;;8.40;3.05;;;;;;;23.89;47.87;99808.09;4440700;32;32171;-78
2022/07/04 00:18:39;;;;;;;5.22;3.30;;;;;;;23.83;47.86;99802.81;4453407;32;33744;-79
2022/07/04 00:21:06;;;;;;;7.00;3.05;;;;;;;23.67;49.02;99813.31;4453740;32;34267;-78
2022/07/04 00:23:34;;;;;;;6.47;3.17;;;;;;;23.74;48.33;99819.44;4466219;32;34028;-78
2022/07/04 00:26:02;;;;;;;5.37;3.28;;;;;;;23.80;48.03;99814.62;4440795;32;33467;-79
2022/07/04 00:28:29;;;;;;;8.82;3.35;;;;;;;23.59;48.77;99811.97;4453632;32;34459;-79
2022/07/04 00:30:57;;;;;;;5.60;3.58;;;;;;;23.58;48.62;99820.66;4453053;32;33849;-78
2022/07/04 00:33:25;;;;;;;6.05;3.37;;;;;;;23.48;48.49;99815.09;4440439;32;33619;-78
2022/07/04 00:35:52;;;;;;;5.55;3.67;;;;;;;23.52;48.62;99807.78;4453391;32;32965;-78
2022/07/04 00:38:20;;;;;;;5.32;3.20;;;;;;;23.39;49.31;99808.47;4453232;32;34450;-78
2022/07/04 00:40:48;;;;;;;6.60;3.47;;;;;;;23.62;48.50;99813.34;4453251;32;34398;-78
2022/07/04 00:43:26;;;;;;;5.60;3.55;;;;;;;23.58;48.65;99806.66;4453030;32;33769;-79
2022/07/04 00:45:56;;;;;;;7.68;3.70;;;;;;;23.49;48.90;99806.41;4465633;32;33089;-78
2022/07/04 00:48:27;;;;;;;7.25;3.35;;;;;;;23.53;48.72;99804.72;4453126;32;32432;-78
2022/07/04 00:50:54;;;;;;;6.80;3.25;;;;;;;23.49;48.86;99802.78;4453161;32;34245;-78
2022/07/04 00:53:23;;;;;;;6.22;3.87;;;;;;;23.43;49.30;99801.97;4453067;32;33543;-78
2022/07/04 00:55:51;;;;;;;5.65;3.47;;;;;;;23.43;49.22;99799.16;4452844;32;31722;-78
2022/07/04 00:58:20;;;;;;;7.05;3.92;;;;;;;23.25;49.80;99814.72;4466094;32;33767;-78
2022/07/04 01:00:49;;;;;;;6.00;3.40;;;;;;;23.24;49.83;99801.84;4465646;32;34707;-78
2022/07/04 01:03:16;;;;;;;6.97;3.80;;;;;;;23.32;49.55;99801.22;4454130;32;33919;-78
2022/07/04 01:05:44;;;;;;;5.93;3.37;;;;;;;23.24;49.94;99809.41;4441786;32;32049;-77
2022/07/04 01:08:12;;;;;;;5.70;3.62;;;;;;;23.27;49.90;99806.88;4454479;32;32248;-78
2022/07/04 01:10:40;;;;;;;8.95;3.60;;;;;;;23.04;50.94;99812.31;4463069;32;34451;-77
2022/07/04 01:13:08;;;;;;;6.15;3.90;;;;;;;22.98;51.30;99808.72;4442005;32;34706;-78
2022/07/04 01:15:36;;;;;;;5.40;3.33;;;;;;;23.00;50.63;99812.06;4442315;32;33994;-78
2022/07/04 01:18:04;;;;;;;7.10;3.55;;;;;;;23.05;50.06;99806.44;4441385;32;33638;-77
2022/07/04 01:20:36;;;;;;;7.45;4.03;;;;;;;23.14;49.71;99813.09;4427518;32;32942;-78
2022/07/04 01:23:04;;;;;;;6.87;3.62;;;;;;;23.06;50.07;99815.66;4440208;32;32493;-78
2022/07/04 01:25:32;;;;;;;6.65;3.35;;;;;;;23.00;50.58;99812.06;4439920;32;33349;-78
2022/07/04 01:28:00;;;;;;;7.30;3.50;;;;;;;22.99;50.55;99815.97;4439741;32;32238;-78
2022/07/04 01:30:28;;;;;;;8.45;4.07;;;;;;;22.99;50.24;99813.19;4452502;32;34575;-78
2022/07/04 01:32:56;;;;;;;8.05;3.53;;;;;;;23.03;49.81;99807.84;4439831;32;34654;-78
2022/07/04 01:35:24;;;;;;;7.72;3.37;;;;;;;22.97;49.75;99807.88;4439680;32;33267;-79
2022/07/04 01:37:52;;;;;;;5.72;3.45;;;;;;;23.02;49.56;99812.59;4439514;32;32403;-79
2022/07/04 01:40:19;;;;;;;5.50;3.55;;;;;;;22.98;49.73;99805.91;4439698;32;34381;-78
2022/07/04 01:42:47;;;;;;;6.22;3.42;;;;;;;22.91;49.88;99808.19;4426900;32;34099;-78
2022/07/04 01:45:15;;;;;;;6.62;3.80;;;;;;;22.98;49.98;99808.72;4439678;32;34134;-78
2022/07/04 01:47:42;;;;;;;6.05;4.20;;;;;;;22.84;50.54;99805.69;4452643;32;33519;-78
2022/07/04 01:50:13;;;;;;;7.55;4.22;;;;;;;22.77;50.86;99807.09;4439411;32;34222;-78
2022/07/04 01:52:41;;;;;;;6.68;4.00;;;;;;;22.79;50.84;99810.47;4439807;32;33381;-75
2022/07/04 01:55:10;;;;;;;13.90;3.85;;;;;;;22.85;50.24;99815.75;4452402;32;33578;-78
2022/07/04 01:57:38;;;;;;;5.95;3.72;;;;;;;22.98;49.68;99817.94;4439490;32;33385;-78
2022/07/04 02:02:57;;;;;;;7.15;3.47;;;;;;;22.89;49.87;99816.03;4452623;32;34335;-80
2022/07/04 02:05:25;;;;;;;5.50;3.60;;;;;;;22.79;50.12;99816.06;4439347;32;33229;-80
2022/07/04 02:07:53;;;;;;;6.53;3.20;;;;;;;22.68;50.81;99816.09;4442844;32;34555;-80
2022/07/04 02:10:21;;;;;;;8.00;3.30;;;;;;;22.73;50.22;99820.84;4451999;32;32789;-80
2022/07/04 02:13:01;;;;;;;7.25;3.78;;;;;;;22.73;49.91;99822.81;4426659;32;32582;-80
2022/07/04 02:19:21;;;;;;;6.05;3.58;;;;;;;22.71;50.30;99825.87;4376711;32;32644;-80
2022/07/04 02:22:02;;;;;;;6.78;3.60;;;;;;;22.68;50.51;99824.50;4368244;32;34667;-80
2022/07/04 02:25:18;;;;;;;6.35;3.45;;;;;;;22.72;50.19;99819.16;4368000;32;34209;-80
2022/07/04 02:28:30;;;;;;;7.12;3.80;;;;;;;22.69;50.04;99822.53;4379827;32;34147;-80
2022/07/04 02:38:43;;;;;;;7.72;3.55;;;;;;;22.60;50.55;99830.69;4470048;32;34241;-80
2022/07/04 02:41:11;;;;;;;10.95;3.85;;;;;;;22.62;50.32;99825.63;4443278;32;33572;-80
2022/07/04 02:43:38;;;;;;;8.68;3.72;;;;;;;22.74;49.88;99824.47;4442240;32;32266;-80
2022/07/04 02:46:43;;;;;;;7.10;3.35;;;;;;;22.55;50.56;99832.66;4448514;32;35306;-80
2022/07/04 02:50:02;;;;;;;6.12;3.22;;;;;;;22.47;50.93;99831.28;4453298;32;33003;-80
2022/07/04 02:53:32;;;;;;;6.03;3.67;;;;;;;22.52;50.83;99830.44;4442805;32;32948;-80
2022/07/04 02:56:37;;;;;;;8.32;3.60;;;;;;;22.59;50.18;99826.22;4446403;32;32376;-80
2022/07/04 02:59:23;;;;;;;5.43;3.50;;;;;;;22.55;50.43;99833.50;4435919;32;32876;-80
2022/07/04 03:01:50;;;;;;;8.10;4.25;;;;;;;22.53;50.68;99835.72;4449549;32;32144;-80
2022/07/04 03:04:41;;;;;;;6.45;3.78;;;;;;;22.56;50.64;99835.16;4451130;32;33395;-80
2022/07/04 03:11:19;;;;;;;6.60;3.58;;;;;;;22.49;50.72;99834.63;4461482;32;32748;-81
2022/07/04 03:13:48;;;;;;;9.52;3.75;;;;;;;22.44;50.64;99831.84;4459965;32;33962;-80
2022/07/04 03:17:12;;;;;;;12.02;4.32;;;;;;;22.50;50.36;99829.88;4449637;32;31882;-80
2022/07/04 03:19:44;;;;;;;10.95;3.70;;;;;;;22.53;50.39;99840.50;4464022;32;34445;-80
2022/07/04 03:23:26;;;;;;;9.02;3.78;;;;;;;22.55;50.36;99841.87;4449726;32;34575;-80
2022/07/04 03:25:57;;;;;;;4.78;3.20;;;;;;;22.53;50.98;99846.09;4451501;32;34775;-80
2022/07/04 03:28:25;;;;;;;6.40;3.87;;;;;;;22.57;50.71;99847.19;4448832;32;33353;-79
2022/07/04 03:30:53;;;;;;;6.95;4.28;;;;;;;22.45;50.98;99841.91;4446685;32;33896;-80
2022/07/04 03:34:23;;;;;;;6.37;3.83;;;;;;;22.58;50.75;99838.53;4450747;32;36297;-80
2022/07/04 03:37:48;;;;;;;7.05;3.75;;;;;;;22.65;50.67;99836.25;4466365;32;33914;-80
2022/07/04 03:40:16;;;;;;;6.28;3.85;;;;;;;22.75;50.63;99834.56;4451050;32;31900;-80
2022/07/04 03:42:44;;;;;;;7.50;3.50;;;;;;;22.76;51.00;99833.41;4445320;32;34224;-80
2022/07/04 03:45:13;;;;;;;6.57;3.78;;;;;;;22.82;50.93;99832.28;4451603;32;34286;-79
2022/07/04 03:47:41;;;;;;;8.30;3.83;;;;;;;22.84;51.12;99835.63;4449572;32;34070;-80
2022/07/04 03:50:09;;;;;;;6.55;3.90;;;;;;;22.86;51.28;99841.78;4444984;32;33423;-80
2022/07/04 03:52:36;;;;;;;6.00;3.90;;;;;;;22.93;51.32;99829.16;4456438;32;33689;-80
2022/07/04 03:55:05;;;;;;;6.82;4.10;;;;;;;22.98;51.52;99828.31;4443529;32;34917;-80
2022/07/04 03:57:32;;;;;;;7.90;4.40;;;;;;;22.95;51.91;99831.66;4455188;32;32497;-82
2022/07/04 04:00:00;;;;;;;6.90;3.70;;;;;;;23.01;51.77;99838.91;4435574;32;31943;-73
2022/07/04 04:02:40;;;;;;;5.65;3.90;;;;;;;23.11;51.38;99830.47;4446420;32;32213;-80
2022/07/04 04:05:26;;;;;;;5.30;3.87;;;;;;;23.20;51.18;99841.91;4431608;32;34578;-80
2022/07/04 04:07:57;;;;;;;6.75;4.20;;;;;;;23.28;51.14;99836.53;4440609;32;33397;-80
2022/07/04 04:10:27;;;;;;;8.65;3.83;;;;;;;23.33;50.67;99833.72;4441079;32;34101;-80
2022/07/04 04:12:55;;;;;;;6.50;4.60;;;;;;;23.39;50.69;99837.31;4440789;32;33798;-78
2022/07/04 04:15:23;;;;;;;11.70;4.20;;;;;;;23.51;50.28;99837.78;4440598;32;34466;-78
2022/07/04 04:17:53;;;;;;;6.72;4.22;;;;;;;23.49;51.06;99836.38;4439734;32;33845;-78
2022/07/04 04:20:25;;;;;;;7.55;4.00;;;;;;;23.54;51.13;99839.19;4428542;32;32784;-78
2022/07/04 04:22:55;;;;;;;7.03;4.10;;;;;;;23.57;51.19;99841.41;4440989;32;33882;-78
2022/07/04 04:25:26;;;;;;;7.75;3.75;;;;;;;23.68;50.90;99840.22;4440837;32;35274;-78
2022/07/04 04:28:02;;;;;;;6.25;4.00;;;;;;;23.78;50.78;99842.94;4441580;32;33878;-78
2022/07/04 04:30:30;;;;;;;13.73;9.02;;;;;;;23.85;50.90;99846.25;4453382;32;33126;-78
2022/07/04 04:33:04;;;;;;;9.57;6.32;;;;;;;23.88;51.14;99850.44;4451536;32;33738;-78
2022/07/04 04:35:34;;;;;;;8.45;5.45;;;;;;;23.96;51.02;99847.00;4438715;32;34623;-78
2022/07/04 04:38:07;;;;;;;7.12;4.53;;;;;;;24.06;50.86;99843.25;4451345;32;33802;-78
2022/07/04 04:40:34;;;;;;;11.52;4.68;;;;;;;24.10;50.92;99836.75;4439124;32;33550;-78
2022/07/04 04:43:05;;;;;;;9.63;4.68;;;;;;;24.13;51.02;99832.53;4438203;32;33675;-78
2022/07/04 04:45:35;;;;;;;8.07;4.03;;;;;;;24.25;50.85;99841.37;4438519;32;32942;-78
2022/07/04 04:48:04;;;;;;;8.32;4.60;;;;;;;24.32;50.41;99835.47;4439860;32;35243;-78
2022/07/04 04:50:33;;;;;;;8.00;4.10;;;;;;;24.42;50.02;99827.78;4454257;32;33992;-78
2022/07/04 04:53:06;;;;;;;12.52;5.12;;;;;;;24.55;49.73;99832.69;4427855;32;32369;-78
2022/07/04 04:55:36;;;;;;;6.68;3.95;;;;;;;24.59;49.64;99833.75;4452997;32;34307;-78
2022/07/04 04:58:04;;;;;;;7.95;3.87;;;;;;;24.72;48.85;99831.34;4440275;32;34008;-78
2022/07/04 05:00:34;;;;;;;10.02;4.80;;;;;;;24.82;48.63;99829.25;4452773;32;33371;-78
2022/07/04 05:03:02;;;;;;;8.18;4.55;;;;;;;24.88;48.17;99830.03;4440183;32;33330;-78
2022/07/04 05:05:33;;;;;;;9.23;4.32;;;;;;;25.00;48.32;99827.66;4427547;32;34007;-78
2022/07/04 05:08:04;;;;;;;12.70;5.18;;;;;;;25.09;48.73;99837.09;4439675;32;33376;-78
2022/07/04 05:10:32;;;;;;;11.20;5.18;;;;;;;25.19;48.55;99827.69;4452815;32;34236;-78
2022/07/04 05:13:02;;;;;;;13.15;4.90;;;;;;;25.29;48.52;99835.97;4440123;32;33127;-79
2022/07/04 05:15:30;;;;;;;9.70;5.45;;;;;;;25.35;47.16;99828.31;4440209;32;34273;-78
2022/07/04 05:18:03;;;;;;;7.62;4.00;;;;;;;25.42;47.20;99835.19;4440227;32;34096;-78
2022/07/04 05:20:32;;;;;;;10.50;4.53;;;;;;;25.55;45.84;99831.63;4453019;32;33420;-78
2022/07/04 05:23:07;;;;;;;8.65;4.55;;;;;;;25.63;45.01;99832.91;4440250;32;32103;-79
2022/07/04 05:25:37;;;;;;;6.50;4.05;;;;;;;25.75;44.62;99833.31;4452778;32;35116;-78
2022/07/04 05:28:10;;;;;;;8.80;4.28;;;;;;;25.89;44.17;99839.00;4452676;32;33879;-78
2022/07/04 05:30:38;;;;;;;7.32;3.97;;;;;;;26.00;43.95;99836.84;4452640;32;34191;-79
2022/07/04 05:33:08;;;;;;;6.25;3.55;;;;;;;26.10;43.63;99831.03;4427094;32;32313;-78
2022/07/04 05:35:38;;;;;;;8.82;4.05;;;;;;;26.23;43.92;99845.12;4440199;32;34108;-78
2022/07/04 05:38:11;;;;;;;10.70;5.40;;;;;;;26.26;42.76;99838.06;4452486;32;34175;-79
2022/07/04 05:40:39;;;;;;;6.60;3.70;;;;;;;26.35;42.69;99839.03;4439719;32;33540;-78
2022/07/04 05:43:10;;;;;;;5.80;3.50;;;;;;;26.29;41.51;99834.63;4426963;32;33033;-78
2022/07/04 05:45:38;;;;;;;9.70;3.47;;;;;;;26.68;40.98;99838.94;4439510;32;32866;-78
2022/07/04 05:48:08;;;;;;;5.80;3.92;;;;;;;26.93;40.98;99841.25;4452631;32;33097;-78
2022/07/04 05:50:38;;;;;;;6.82;3.30;;;;;;;26.86;39.95;99841.69;4439583;32;31736;-79
2022/07/04 05:53:08;;;;;;;6.62;3.72;;;;;;;27.04;39.80;99841.91;4439695;32;34070;-79
2022/07/04 05:55:42;;;;;;;7.65;3.92;;;;;;;27.27;39.91;99842.81;4440760;32;34671;-78
2022/07/04 05:58:13;;;;;;;7.65;4.00;;;;;;;27.43;39.96;99849.75;4442030;32;33875;-79
2022/07/04 06:00:43;;;;;;;6.25;3.53;;;;;;;27.47;39.57;99846.00;4454276;32;32797;-79
2022/07/04 06:03:14;;;;;;;7.37;4.45;;;;;;;27.81;38.48;99839.88;4441523;32;33148;-79
2022/07/04 06:05:43;;;;;;;5.80;3.92;;;;;;;27.83;38.91;99845.19;4441505;32;35301;-79
2022/07/04 06:08:14;;;;;;;7.68;3.97;;;;;;;27.98;38.39;99836.31;4442208;32;33948;-79
2022/07/04 06:10:42;;;;;;;6.03;3.60;;;;;;;28.04;37.45;99832.22;4441528;32;33279;-78
2022/07/04 06:13:18;;;;;;;5.87;3.62;;;;;;;27.96;36.52;99838.63;4441609;32;33898;-79
2022/07/04 06:15:49;;;;;;;6.18;4.05;;;;;;;28.24;36.45;99830.88;4442137;32;34418;-79
2022/07/04 06:18:18;;;;;;;6.55;3.70;;;;;;;28.40;36.96;99843.44;4441795;32;33546;-79
2022/07/04 06:20:57;;;;;;;6.47;3.70;;;;;;;28.53;36.49;99834.03;4442519;32;34229;-78
2022/07/04 06:23:27;;;;;;;7.97;3.92;;;;;;;28.69;35.44;99837.25;4454167;32;34264;-79
2022/07/04 06:25:58;;;;;;;8.10;4.05;;;;;;;28.73;36.51;99840.25;4441292;32;35193;-79
2022/07/04 06:28:25;;;;;;;8.13;3.97;;;;;;;28.67;35.45;99838.72;4441578;32;33079;-79
2022/07/04 06:31:16;;;;;;;7.62;4.00;;;;;;;28.87;35.32;99829.69;4433163;32;31321;-79
2022/07/04 06:36:33;;;;;;;6.95;3.65;;;;;;;28.91;34.81;99835.53;4443438;32;33222;-79
2022/07/04 06:39:01;;;;;;;7.85;3.25;;;;;;;29.23;34.35;99839.94;4428882;32;32319;-79
2022/07/04 06:41:28;;;;;;;7.80;3.80;;;;;;;29.35;34.37;99843.78;4441324;32;34163;-79
2022/07/04 06:44:00;;;;;;;8.10;3.85;;;;;;;29.48;34.71;99844.81;4454112;32;34181;-79
2022/07/04 06:46:31;;;;;;;8.43;3.83;;;;;;;29.77;34.44;99836.53;4441341;32;34374;-78
2022/07/04 06:49:04;;;;;;;7.82;3.47;;;;;;;29.79;33.71;99830.53;4441230;32;33338;-79
2022/07/04 06:51:34;;;;;;;5.37;3.50;;;;;;;30.06;32.13;99835.00;4454075;32;33107;-79
2022/07/04 06:54:02;;;;;;;6.65;3.60;;;;;;;30.09;32.14;99835.19;4441336;32;32436;-78
2022/07/04 06:56:32;;;;;;;6.12;3.42;;;;;;;30.07;32.48;99831.84;4441591;32;34639;-78
2022/07/04 06:59:02;;;;;;;7.97;3.90;;;;;;;30.35;32.51;99835.13;4441220;32;34200;-79
2022/07/04 07:01:36;;;;;;;7.12;3.53;;;;;;;30.45;32.13;99831.94;4454273;32;32749;-79
2022/07/04 07:04:07;;;;;;;10.30;3.53;;;;;;;30.30;32.50;99829.66;4441196;32;32219;-79
2022/07/04 07:06:41;;;;;;;7.70;3.65;;;;;;;30.30;31.99;99832.47;4453345;32;35205;-78
2022/07/04 07:09:11;;;;;;;10.23;3.55;;;;;;;30.58;31.91;99835.72;4453826;32;34913;-79
2022/07/04 07:11:41;;;;;;;6.25;3.55;;;;;;;30.64;31.43;99827.88;4453979;32;33235;-79
2022/07/04 07:14:11;;;;;;;6.53;3.58;;;;;;;30.44;30.92;99840.78;4453903;32;34440;-79
2022/07/04 07:16:42;;;;;;;6.70;3.67;;;;;;;30.53;31.18;99832.25;4453666;32;34356;-79
2022/07/04 07:19:15;;;;;;;5.30;3.35;;;;;;;30.64;30.75;99827.88;4441277;32;34881;-79
2022/07/04 07:21:45;;;;;;;6.10;3.60;;;;;;;30.87;31.50;99839.78;4453469;32;32877;-79
2022/07/04 07:24:15;;;;;;;7.68;3.20;;;;;;;31.02;31.25;99833.53;4458464;32;33917;-79
2022/07/04 07:26:43;;;;;;;5.28;3.12;;;;;;;31.24;31.28;99832.44;4446227;32;34493;-78
2022/07/04 07:29:13;;;;;;;4.70;2.87;;;;;;;31.18;29.85;99833.84;4457611;32;34225;-79
2022/07/04 07:31:43;;;;;;;6.55;3.00;;;;;;;31.39;28.99;99831.84;4452947;32;34203;-79
2022/07/04 07:34:16;;;;;;;6.03;3.50;;;;;;;31.29;29.41;99832.22;4456369;32;34049;-79
2022/07/04 07:36:46;;;;;;;6.05;3.03;;;;;;;31.39;29.79;99838.34;4442537;32;32890;-79
2022/07/04 07:39:18;;;;;;;6.97;3.17;;;;;;;31.27;29.51;99837.41;4453624;32;32638;-79
2022/07/04 07:41:48;;;;;;;9.13;3.00;;;;;;;31.46;28.93;99834.94;4453921;32;32466;-79
2022/07/04 07:44:21;;;;;;;4.87;2.42;;;;;;;31.53;28.42;99831.56;4453575;32;33970;-79
2022/07/04 07:46:48;;;;;;;5.75;2.67;;;;;;;31.64;28.51;99827.13;4440790;32;33067;-79
2022/07/04 07:49:19;;;;;;;5.37;2.22;;;;;;;31.87;27.19;99836.13;4453494;32;34071;-79
2022/07/04 07:51:50;;;;;;;7.20;2.78;;;;;;;31.76;27.43;99833.75;4453735;32;33334;-79
2022/07/04 07:54:20;;;;;;;6.55;2.30;;;;;;;31.99;28.59;99824.84;4453570;32;33227;-79
2022/07/04 07:57:13;;;;;;;5.97;2.70;;;;;;;31.91;28.76;99820.91;4453819;32;35221;-79
2022/07/04 07:59:44;;;;;;;3.83;2.20;;;;;;;32.10;27.22;99826.91;4453112;32;33893;-79
2022/07/04 08:02:12;;;;;;;4.18;2.33;;;;;;;32.16;26.61;99823.84;4453606;32;33194;-79
2022/07/04 08:04:44;;;;;;;6.30;2.22;;;;;;;32.38;26.41;99818.63;4453580;32;34427;-79
2022/07/04 08:07:14;;;;;;;4.60;2.20;;;;;;;32.31;26.77;99823.22;4453478;32;34488;-79
2022/07/04 08:09:51;;;;;;;4.60;2.40;;;;;;;32.46;27.31;99818.87;4441548;32;32490;-79
2022/07/04 08:12:21;;;;;;;4.80;2.15;;;;;;;32.72;26.40;99813.69;4453651;32;33968;-79
2022/07/04 08:14:52;;;;;;;4.07;2.30;;;;;;;32.74;26.96;99809.31;4453710;32;34138;-79
2022/07/04 08:17:20;;;;;;;4.62;2.25;;;;;;;32.79;27.10;99805.44;4453377;32;34300;-79
2022/07/04 08:19:53;;;;;;;8.30;2.40;;;;;;;32.86;26.83;99807.69;4465341;32;34648;-79
2022/07/04 08:22:23;;;;;;;3.97;1.65;;;;;;;32.92;25.44;99809.94;4453402;32;33271;-79
2022/07/04 08:24:56;;;;;;;4.20;2.17;;;;;;;32.69;24.34;99801.00;4465875;32;34694;-79
2022/07/04 08:27:38;;;;;;;9.43;1.83;;;;;;;33.23;24.25;99797.09;4440512;32;33017;-79
2022/07/04 08:30:08;;;;;;;3.20;1.75;;;;;;;33.12;25.20;99807.31;4440721;32;34108;-79
2022/07/04 08:32:42;;;;;;;4.62;1.98;;;;;;;33.20;24.70;99807.16;4441595;32;33231;-79
2022/07/04 08:35:10;;;;;;;4.90;1.62;;;;;;;33.08;24.75;99800.69;4466086;32;33753;-79
2022/07/04 08:37:41;;;;;;;4.18;1.85;;;;;;;33.11;24.64;99814.19;4440846;32;34115;-79
2022/07/04 08:40:12;;;;;;;3.03;1.75;;;;;;;33.23;24.14;99808.47;4453390;32;33887;-79
2022/07/04 08:42:45;;;;;;;2.15;1.27;;;;;;;33.31;24.64;99816.06;4453249;32;33239;-79
2022/07/04 08:45:17;;;;;;;4.65;1.40;;;;;;;33.64;23.53;99808.19;4440111;32;33273;-79
2022/07/04 08:47:51;;;;;;;2.53;1.40;;;;;;;33.75;22.85;99816.22;4454166;32;35051;-79
2022/07/04 08:50:26;;;;;;;2.97;1.58;;;;;;;33.88;22.70;99800.75;4453206;32;32634;-79
2022/07/04 08:53:01;;;;;;;4.40;1.40;;;;;;;33.99;22.56;99810.44;4466172;32;34174;-79
2022/07/04 08:58:31;;;;;;;3.75;1.70;;;;;;;34.21;22.94;99804.16;4464058;32;34459;-79
2022/07/04 09:01:01;;;;;;;2.87;1.62;;;;;;;33.96;22.22;99809.13;4465390;32;34637;-78
2022/07/04 09:03:32;;;;;;;3.65;1.55;;;;;;;34.16;23.50;99807.28;4453324;32;31783;-78
2022/07/04 09:06:04;;;;;;;3.12;1.70;;;;;;;33.91;22.59;99812.25;4466142;32;33956;-79
2022/07/04 09:08:40;;;;;;;2.25;1.50;;;;;;;34.38;23.54;99802.19;4440794;32;32891;-78
2022/07/04 09:11:08;;;;;;;3.00;1.80;;;;;;;34.48;23.35;99790.22;4440609;32;32476;-79
2022/07/04 09:13:40;;;;;;;3.20;1.60;;;;;;;34.52;23.32;99809.09;4453018;32;33199;-79
2022/07/04 09:16:10;;;;;;;4.57;1.52;;;;;;;34.58;22.41;99809.66;4452927;32;33922;-79
2022/07/04 09:18:41;;;;;;;3.80;1.83;;;;;;;34.69;23.34;99802.19;4465459;32;34320;-79
2022/07/04 09:21:09;;;;;;;3.60;1.67;;;;;;;34.73;23.23;99803.13;4452810;32;34186;-79
2022/07/04 09:23:44;;;;;;;1.90;1.30;;;;;;;34.80;22.56;99809.03;4452833;32;34075;-79
2022/07/04 09:26:11;;;;;;;;;;;;;;;34.69;21.57;99799.34;4453197;32;32563;-79
2022/07/04 09:28:42;;;;;;;2.90;1.65;;;;;;;34.95;21.43;99804.53;4452696;32;34728;-79
2022/07/04 09:31:18;;;;;;;3.33;1.80;;;;;;;35.11;21.91;99796.75;4454172;32;33951;-79
2022/07/04 09:33:57;;;;;;;4.75;2.00;;;;;;;35.30;23.25;99799.69;4454734;32;33493;-79
2022/07/04 09:36:29;;;;;;;;;;;;;;;35.35;21.65;99792.88;4454832;32;34479;-79
2022/07/04 09:39:19;;;;;;;4.28;1.80;;;;;;;35.44;21.11;99799.19;4454916;32;35413;-80
2022/07/04 09:42:03;;;;;;;5.32;1.77;;;;;;;35.41;20.69;99799.09;4441665;32;33399;-79
2022/07/04 09:44:34;;;;;;;4.85;2.03;;;;;;;35.62;21.88;99794.72;4442003;32;34372;-78
2022/07/04 09:47:22;;;;;;;3.40;2.00;;;;;;;35.73;20.74;99796.97;4456963;32;32383;-78
2022/07/04 09:50:01;;;;;;;5.50;2.00;;;;;;;35.61;20.75;99795.91;4463558;32;34291;-78
2022/07/04 09:52:32;;;;;;;4.37;1.90;;;;;;;36.05;20.33;99786.22;4446503;32;35000;-78
2022/07/04 09:55:02;;;;;;;3.70;1.90;;;;;;;36.22;21.24;99782.88;4454500;32;33617;-78
2022/07/04 09:57:32;;;;;;;4.10;2.10;;;;;;;36.47;19.87;99783.38;4445944;32;32257;-79
2022/07/04 10:00:16;;;;;;;3.62;1.98;;;;;;;36.11;20.13;99791.25;4441814;32;34309;-78
2022/07/04 10:02:48;;;;;;;4.40;2.12;;;;;;;36.14;20.33;99786.81;4445084;32;32692;-79
2022/07/04 10:05:54;;;;;;;4.30;2.10;;;;;;;36.05;20.10;99778.47;4446257;32;33315;-79
2022/07/04 10:09:14;;;;;;;4.03;2.03;;;;;;;36.52;20.61;99763.03;4458261;32;34118;-78
2022/07/04 10:12:31;;;;;;;4.25;1.98;;;;;;;36.75;20.13;99763.88;4453452;32;34018;-79
2022/07/04 10:15:52;;;;;;;4.18;2.17;;;;;;;36.73;20.14;99774.84;4444188;32;32521;-78
2022/07/04 10:18:50;;;;;;;5.62;2.20;;;;;;;37.02;19.55;99775.34;4457012;32;35043;-78
2022/07/04 10:21:41;;;;;;;5.95;2.17;;;;;;;37.41;19.71;99755.91;4444483;32;32196;-79
2022/07/04 10:24:49;;;;;;;5.37;2.10;;;;;;;37.41;20.07;99753.88;4447864;32;33872;-79
2022/07/04 10:34:04;;;;;;;3.60;1.77;;;;;;;37.93;18.79;99734.87;4459395;32;33612;-78
2022/07/04 10:37:30;;;;;;;4.62;1.85;;;;;;;37.98;18.06;99731.69;4450028;32;34165;-79
2022/07/04 10:40:27;;;;;;;4.28;1.70;;;;;;;38.07;18.16;99714.16;4446737;32;32688;-79
2022/07/04 10:43:37;;;;;;;4.78;1.77;;;;;;;38.11;17.87;99724.44;4432301;32;32961;-78
2022/07/04 10:46:05;;;;;;;7.57;1.90;;;;;;;38.20;18.33;99725.00;4434289;32;31774;-76
2022/07/04 10:48:33;;;;;;;3.17;1.80;;;;;;;38.36;17.76;99716.09;4470742;32;35041;-79
2022/07/04 10:51:04;;;;;;;6.12;2.20;;;;;;;38.01;17.25;99721.47;4443781;32;34872;-79
2022/07/04 10:53:58;;;;;;;3.53;1.80;;;;;;;38.35;17.92;99723.06;4444838;32;33952;-79
2022/07/04 10:56:26;;;;;;;4.10;1.60;;;;;;;38.40;17.29;99719.00;4470938;32;33897;-80
2022/07/04 10:58:55;;;;;;;10.35;2.12;;;;;;;38.03;16.32;99713.31;4470857;32;34339;-79
2022/07/04 11:01:25;;;;;;;3.08;1.60;;;;;;;38.49;16.48;99717.44;4443839;32;33046;-80
2022/07/04 11:03:54;;;;;;;3.25;1.58;;;;;;;38.68;16.46;99706.97;4457098;32;33840;-79
2022/07/04 11:06:35;;;;;;;3.17;1.67;;;;;;;38.78;16.03;99711.97;4444268;32;34425;-80
2022/07/04 11:09:19;;;;;;;3.35;1.65;;;;;;;39.00;16.10;99696.53;4470503;32;35050;-79
2022/07/04 11:12:01;;;;;;;2.20;1.37;;;;;;;39.07;16.36;99701.53;4456293;32;33789;-80
2022/07/04 11:14:32;;;;;;;4.70;2.05;;;;;;;39.04;15.42;99697.41;4443793;32;32328;-80
2022/07/04 11:17:04;;;;;;;3.67;1.77;;;;;;;39.36;16.62;99685.28;4456724;32;33693;-79
2022/07/04 11:19:31;;;;;;;2.62;1.42;;;;;;;39.43;15.30;99689.00;4430826;32;32948;-80
2022/07/04 11:21:59;;;;;;;3.35;1.45;;;;;;;39.17;15.62;99684.38;4443889;32;33748;-81
2022/07/04 11:24:28;;;;;;;4.25;1.60;;;;;;;38.95;15.67;99688.34;4456692;32;33892;-80
2022/07/04 11:27:00;;;;;;;2.90;1.70;;;;;;;38.63;16.16;99684.41;4456477;32;33802;-81
2022/07/04 11:29:30;;;;;;;2.62;1.27;;;;;;;39.22;17.15;99680.28;4457030;32;33929;-80
2022/07/04 11:31:58;;;;;;;4.78;1.70;;;;;;;39.20;16.10;99671.25;4443648;32;33937;-80
2022/07/04 11:34:31;;;;;;;1.95;1.40;;;;;;;39.04;14.71;99665.84;4443171;32;33742;-80
2022/07/04 11:37:01;;;;;;;3.05;1.50;;;;;;;39.40;15.35;99658.22;4443783;32;33733;-80
2022/07/04 11:39:28;;;;;;;3.05;1.48;;;;;;;39.41;14.78;99659.06;4443916;32;34461;-80
2022/07/04 11:45:02;;;;;;;5.57;1.58;;;;;;;39.11;14.97;99662.19;4456173;32;32876;-80
2022/07/04 11:47:38;;;;;;;3.08;1.50;;;;;;;38.71;15.16;99655.38;4445704;32;33655;-80
2022/07/04 11:50:14;;;;;;;3.05;1.50;;;;;;;38.91;15.16;99635.00;4449698;32;249598;-80
2022/07/04 11:52:43;;;;;;;2.90;1.42;;;;;;;39.24;15.23;99631.91;4443421;32;33857;-80
2022/07/04 11:55:31;;;;;;;7.47;1.40;;;;;;;39.59;15.06;99636.16;4435138;32;32951;-80
2022/07/04 11:57:59;;;;;;;3.42;1.10;;;;;;;39.56;14.19;99640.66;4443482;32;34664;-80
2022/07/04 12:00:34;;;;;;;3.65;1.33;;;;;;;38.88;13.10;99643.19;4443152;32;33144;-80
2022/07/04 12:03:08;;;;;;;3.33;1.50;;;;;;;38.71;13.55;99645.94;4456813;32;33797;-80
2022/07/04 12:05:36;;;;;;;2.83;1.50;;;;;;;39.15;14.17;99637.19;4443306;32;32774;-80
2022/07/04 12:08:07;;;;;;;2.85;1.55;;;;;;;39.13;15.16;99631.84;4456404;32;33481;-79
2022/07/04 12:10:52;;;;;;;3.83;1.60;;;;;;;39.24;15.29;99628.19;4447444;32;34685;-79
2022/07/04 12:13:20;;;;;;;3.05;1.60;;;;;;;39.47;15.62;99628.75;4443567;32;32901;-80
2022/07/04 12:15:56;;;;;;;4.43;1.45;;;;;;;39.01;13.88;99632.16;4444102;32;34004;-79
2022/07/04 12:18:31;;;;;;;5.60;1.45;;;;;;;39.05;14.24;99627.28;4444083;32;34516;-80
2022/07/04 12:21:15;;;;;;;3.25;1.60;;;;;;;39.29;13.30;99631.50;4443960;32;33555;-79
2022/07/04 12:23:54;;;;;;;2.35;1.60;;;;;;;38.70;14.29;99642.25;4443449;32;32213;-79
2022/07/04 12:26:49;;;;;;;4.43;1.60;;;;;;;38.64;14.95;99629.50;4444973;32;31852;-80
2022/07/04 12:29:24;;;;;;;5.55;1.73;;;;;;;38.86;14.77;99630.47;4443391;32;33731;-81
2022/07/04 12:31:58;;;;;;;4.03;1.65;;;;;;;39.03;15.00;99626.87;4444766;32;35250;-80
2022/07/04 12:34:26;;;;;;;3.65;1.60;;;;;;;39.03;15.49;99629.75;4456232;32;34215;-81
2022/07/04 12:36:55;;;;;;;4.43;1.80;;;;;;;39.09;16.66;99615.81;4443329;32;32115;-79
2022/07/04 12:39:34;;;;;;;3.87;1.62;;;;;;;39.02;15.32;99627.25;4430389;32;32310;-78
2022/07/04 12:42:11;;;;;;;4.18;2.15;;;;;;;39.25;15.39;99630.66;4443339;32;34388;-78